Time;durP1;ratioP1;P1;durP2;ratioP2;P2;SDS_P1;SDS_P2;PMS_P1;PMS_P2;Temp;Humidity;BMP_temperature;BMP_pressure;BME280_temperature;BME280_humidity;BME280_pressure;Samples;Min_cycle;Max_cycle;Signal;HPM_P1;HPM_P2
2022/06/16 00:00:24;;;;;;;10.38;5.35;;;;;;;22.65;64.30;100960.91;2102034;28;20040;-75
2022/06/16 00:01:46;;;;;;;11.85;5.60;;;;;;;22.57;64.45;100965.69;2093581;28;20044;-74
2022/06/16 00:03:11;;;;;;;13.45;6.88;;;;;;;22.53;64.63;100968.50;2099115;28;20044;-75
2022/06/16 00:04:36;;;;;;;12.55;5.13;;;;;;;22.53;64.56;100973.88;2097152;28;20059;-75
2022/06/16 00:05:59;;;;;;;11.95;5.50;;;;;;;22.53;64.29;100973.88;2100191;28;20054;-75
2022/06/16 00:07:23;;;;;;;12.57;6.15;;;;;;;22.53;64.01;100979.25;2093998;28;20053;-74
2022/06/16 00:08:45;;;;;;;11.50;5.55;;;;;;;22.49;64.16;100975.78;2100860;28;20154;-75
2022/06/16 00:10:09;;;;;;;9.35;6.10;;;;;;;22.48;63.99;100975.81;2096911;28;20048;-75
2022/06/16 00:11:31;;;;;;;9.77;5.65;;;;;;;22.46;63.98;100977.66;2094024;28;20431;-74
2022/06/16 00:12:54;;;;;;;11.38;6.65;;;;;;;22.42;64.14;100978.69;2091370;28;20052;-74
2022/06/16 00:14:16;;;;;;;12.52;6.65;;;;;;;22.42;64.11;100973.31;2100464;28;20039;-75
2022/06/16 00:15:38;;;;;;;12.57;5.55;;;;;;;22.42;64.27;100973.31;2093202;28;20094;-75
2022/06/16 00:17:00;;;;;;;11.27;6.38;;;;;;;22.43;64.24;100970.59;2099634;28;20049;-75
2022/06/16 00:18:22;;;;;;;12.02;5.55;;;;;;;22.45;64.33;100970.56;2102512;28;20050;-74
2022/06/16 00:19:46;;;;;;;11.50;5.85;;;;;;;22.46;64.43;100973.19;2102859;28;20036;-75
2022/06/16 00:21:10;;;;;;;7.97;5.53;;;;;;;22.47;64.55;100974.94;2094248;28;20064;-75
2022/06/16 00:22:33;;;;;;;9.35;5.38;;;;;;;22.50;64.65;100969.47;2100466;28;20186;-74
2022/06/16 00:23:56;;;;;;;13.50;6.20;;;;;;;22.57;64.62;100973.75;2106012;28;20047;-75
2022/06/16 00:25:18;;;;;;;10.65;6.07;;;;;;;22.61;64.40;100970.03;2108953;28;20047;-74
2022/06/16 00:26:41;;;;;;;17.42;8.13;;;;;;;22.62;64.47;100966.41;2094082;28;20048;-74
2022/06/16 00:28:03;;;;;;;11.57;6.20;;;;;;;22.65;64.60;100977.06;2099147;28;20051;-74
2022/06/16 00:29:25;;;;;;;12.73;5.88;;;;;;;22.69;64.57;100971.59;2110868;28;20417;-75
2022/06/16 00:30:48;;;;;;;8.68;5.47;;;;;;;22.72;64.51;100980.44;2096883;28;20045;-74
2022/06/16 00:32:11;;;;;;;8.65;5.38;;;;;;;22.71;64.58;100978.69;2093320;28;20053;-74
2022/06/16 00:33:34;;;;;;;12.20;5.75;;;;;;;22.66;64.70;100977.94;2086049;28;20044;-75
2022/06/16 00:34:58;;;;;;;10.52;6.65;;;;;;;22.63;65.10;100980.75;2091307;28;20044;-75
2022/06/16 00:36:21;;;;;;;8.85;5.45;;;;;;;22.63;65.29;100980.75;2096235;28;20071;-75
2022/06/16 00:37:44;;;;;;;10.00;5.75;;;;;;;22.60;65.43;100976.34;2104184;28;20143;-74
2022/06/16 00:39:06;;;;;;;10.57;5.97;;;;;;;22.57;65.53;100984.53;2096609;28;20060;-74
2022/06/16 00:40:28;;;;;;;9.65;6.53;;;;;;;22.60;65.81;100983.53;2102173;28;20566;-73
2022/06/16 00:41:50;;;;;;;13.73;6.03;;;;;;;22.65;66.35;100974.38;2105269;28;20078;-74
2022/06/16 00:43:13;;;;;;;13.40;5.80;;;;;;;22.70;66.41;100974.25;2110005;28;20154;-74
2022/06/16 00:44:42;;;;;;;13.15;6.57;;;;;;;22.79;66.46;100975.78;2105286;28;20059;-74
2022/06/16 00:46:06;;;;;;;10.88;6.20;;;;;;;22.83;66.59;100974.78;2096594;28;20485;-74
2022/06/16 00:47:31;;;;;;;11.95;6.57;;;;;;;22.87;66.56;100977.31;2103367;28;20087;-75
2022/06/16 00:48:57;;;;;;;12.43;6.22;;;;;;;22.87;66.65;100982.72;2088708;28;20123;-74
2022/06/16 00:50:20;;;;;;;16.33;6.55;;;;;;;22.84;66.63;100979.25;2095137;28;20048;-74
2022/06/16 00:51:47;;;;;;;13.40;6.15;;;;;;;22.82;66.82;100981.97;2102349;28;20048;-74
2022/06/16 00:53:08;;;;;;;10.02;5.78;;;;;;;22.82;66.89;100976.59;2109558;28;20356;-74
2022/06/16 00:54:36;;;;;;;10.57;6.53;;;;;;;22.88;66.90;100980.91;2097219;28;20859;-74
2022/06/16 00:55:58;;;;;;;13.75;6.60;;;;;;;22.90;66.96;100979.06;2094269;28;20059;-74
2022/06/16 00:57:24;;;;;;;13.30;6.30;;;;;;;22.91;66.92;100978.97;2093428;28;20139;-74
2022/06/16 00:58:52;;;;;;;11.30;6.25;;;;;;;22.92;66.75;100985.25;2092700;28;20049;-74
2022/06/16 01:00:18;;;;;;;14.73;6.57;;;;;;;22.93;66.71;100977.13;2101147;28;20113;-74
2022/06/16 01:01:43;;;;;;;10.48;6.32;;;;;;;22.93;67.25;100974.44;2103014;28;20097;-74
2022/06/16 01:03:06;;;;;;;13.07;6.82;;;;;;;22.98;67.81;100977.84;2105276;28;20048;-74
2022/06/16 01:06:23;;;;;;;13.38;6.55;;;;;;;23.09;68.23;100980.22;2113378;28;20104;-74
2022/06/16 01:07:49;;;;;;;11.13;5.45;;;;;;;23.11;68.31;100975.66;2100650;28;20047;-74
2022/06/16 01:09:13;;;;;;;12.35;5.93;;;;;;;23.14;68.22;100971.97;2102768;28;20404;-74
2022/06/16 01:10:44;;;;;;;9.93;6.55;;;;;;;23.17;68.36;100971.91;2107535;28;20391;-74
2022/06/16 01:13:59;;;;;;;12.88;6.28;;;;;;;23.18;68.65;100969.13;2096882;28;20049;-73
2022/06/16 01:15:32;;;;;;;11.48;6.68;;;;;;;23.20;68.84;100971.78;2093506;28;20050;-73
2022/06/16 01:17:02;;;;;;;9.82;6.57;;;;;;;23.20;68.82;100971.78;2093434;28;20047;-74
2022/06/16 01:18:37;;;;;;;9.63;5.70;;;;;;;23.18;68.87;100973.63;2098475;28;20048;-74
2022/06/16 01:20:08;;;;;;;12.07;7.30;;;;;;;23.17;68.87;100974.59;2086748;28;20044;-74
2022/06/16 01:21:40;;;;;;;10.40;5.93;;;;;;;23.17;68.84;100977.28;2093753;28;20048;-74
2022/06/16 01:23:50;;;;;;;16.38;6.57;;;;;;;23.20;68.76;100975.34;2094808;28;20903;-74
2022/06/16 01:25:26;;;;;;;13.18;6.38;;;;;;;23.22;68.90;100972.63;2096231;28;20061;-74
2022/06/16 01:27:10;;;;;;;8.75;5.72;;;;;;;23.25;68.86;100976.09;2087483;28;20076;-73
2022/06/16 01:28:35;;;;;;;12.75;5.63;;;;;;;23.28;68.82;100975.09;2096351;28;20052;-74
2022/06/16 01:30:07;;;;;;;9.77;5.75;;;;;;;23.30;68.73;100968.72;2094051;28;20039;-74
2022/06/16 01:31:34;;;;;;;9.65;6.13;;;;;;;23.32;68.79;100965.97;2091897;28;20101;-74
2022/06/16 01:33:04;;;;;;;9.95;5.78;;;;;;;23.34;68.83;100962.31;2102275;28;20043;-75
2022/06/16 01:34:42;;;;;;;13.75;6.50;;;;;;;23.35;68.78;100964.06;2091358;28;20048;-74
2022/06/16 01:36:12;;;;;;;11.25;6.22;;;;;;;23.34;68.64;100970.41;2103238;28;20036;-74
2022/06/16 01:37:43;;;;;;;12.18;5.82;;;;;;;23.36;68.74;100962.28;2088465;28;20053;-74
2022/06/16 01:39:15;;;;;;;10.50;6.47;;;;;;;23.35;68.81;100955.13;2090985;28;20078;-73
2022/06/16 01:40:42;;;;;;;9.90;6.68;;;;;;;23.34;68.76;100965.00;2093728;28;20086;-74
2022/06/16 01:42:09;;;;;;;12.18;6.13;;;;;;;23.35;68.78;100955.13;2108020;28;20055;-74
2022/06/16 01:43:36;;;;;;;10.23;6.00;;;;;;;23.35;68.80;100964.06;2100252;28;20055;-73
2022/06/16 01:45:09;;;;;;;11.02;6.32;;;;;;;23.35;68.67;100950.59;2092273;28;20091;-74
2022/06/16 01:46:36;;;;;;;12.20;5.97;;;;;;;23.38;68.78;100960.38;2093683;28;20090;-74
2022/06/16 01:48:07;;;;;;;10.93;5.65;;;;;;;23.38;68.78;100963.06;2093569;28;20040;-74
2022/06/16 01:49:34;;;;;;;12.50;6.22;;;;;;;23.42;68.68;100959.38;2095865;28;20044;-75
2022/06/16 01:51:01;;;;;;;9.10;5.47;;;;;;;23.44;68.65;100952.97;2101688;28;20052;-74
2022/06/16 01:52:25;;;;;;;13.00;5.45;;;;;;;23.45;68.45;100957.44;2094438;28;20040;-74
2022/06/16 01:53:52;;;;;;;10.55;6.32;;;;;;;23.45;68.42;100956.53;2092198;28;20431;-74
2022/06/16 01:55:20;;;;;;;10.30;5.97;;;;;;;23.43;68.35;100955.75;2099394;28;20542;-74
2022/06/16 01:56:48;;;;;;;8.43;5.55;;;;;;;23.38;68.28;100950.47;2096981;28;20142;-75
2022/06/16 01:58:14;;;;;;;11.48;6.07;;;;;;;23.36;68.42;100949.69;2094228;28;20152;-74
2022/06/16 01:59:44;;;;;;;12.73;5.40;;;;;;;23.36;68.28;100948.78;2096310;28;20051;-74
2022/06/16 02:01:15;;;;;;;10.48;5.35;;;;;;;23.35;68.29;100950.59;2092744;28;20079;-74
2022/06/16 02:02:41;;;;;;;11.65;6.00;;;;;;;23.35;68.22;100949.72;2093269;28;20040;-73
2022/06/16 02:04:08;;;;;;;15.10;5.75;;;;;;;23.35;68.19;100950.59;2097812;28;20140;-74
2022/06/16 02:05:37;;;;;;;12.18;5.53;;;;;;;23.36;68.22;100948.78;2093712;28;20116;-74
2022/06/16 02:07:04;;;;;;;13.63;5.63;;;;;;;23.37;68.14;100945.13;2094430;28;20048;-74
2022/06/16 02:08:31;;;;;;;11.27;5.75;;;;;;;23.35;68.05;100947.91;2086227;28;20045;-74
2022/06/16 02:09:59;;;;;;;12.50;6.47;;;;;;;23.32;68.06;100944.41;2099414;28;20427;-74
2022/06/16 02:11:26;;;;;;;11.85;5.95;;;;;;;23.31;68.01;100945.34;2095994;28;20048;-74
2022/06/16 02:12:56;;;;;;;13.73;5.82;;;;;;;23.31;67.88;100956.13;2087316;28;20494;-74
2022/06/16 02:14:34;;;;;;;;;;;;;;;23.29;67.71;100953.50;2096976;28;20157;-74
2022/06/16 02:16:13;;;;;;;11.15;6.00;;;;;;;23.31;67.76;100964.22;2093634;28;19927;-73
2022/06/16 02:17:35;;;;;;;9.63;5.85;;;;;;;23.34;67.66;100962.31;2092758;28;20428;-74
2022/06/16 02:19:01;;;;;;;12.90;5.97;;;;;;;23.35;67.42;100949.72;2091126;28;20143;-75
2022/06/16 02:20:30;;;;;;;9.93;6.13;;;;;;;23.32;67.54;100953.38;2086979;28;20040;-74
2022/06/16 02:21:54;;;;;;;10.40;5.95;;;;;;;23.31;67.50;100954.31;2093647;28;20163;-74
2022/06/16 02:23:15;;;;;;;12.63;5.80;;;;;;;23.32;67.48;100960.59;2091470;28;20471;-74
2022/06/16 02:24:39;;;;;;;10.75;6.82;;;;;;;23.30;67.32;100957.09;2098134;28;20638;-74
2022/06/16 02:26:00;;;;;;;10.85;6.40;;;;;;;23.28;67.25;100956.25;2091588;28;20048;-74
2022/06/16 02:27:25;;;;;;;9.93;5.38;;;;;;;23.27;67.38;100954.47;2093935;28;20582;-74
2022/06/16 02:28:51;;;;;;;9.80;4.78;;;;;;;23.26;67.32;100950.91;2088147;28;20429;-74
2022/06/16 02:30:17;;;;;;;12.77;5.93;;;;;;;23.26;67.28;100956.28;2100893;28;20036;-73
2022/06/16 02:31:54;;;;;;;9.23;5.72;;;;;;;23.20;67.27;100951.13;2094992;28;20135;-74
2022/06/16 02:33:24;;;;;;;12.35;5.45;;;;;;;23.15;67.47;100949.50;2095390;28;20048;-74
2022/06/16 02:34:55;;;;;;;13.20;6.38;;;;;;;23.12;67.66;100946.91;2094047;28;20059;-74
2022/06/16 02:36:31;;;;;;;8.77;5.05;;;;;;;23.15;67.46;100941.44;2102183;28;20733;-74
2022/06/16 02:38:08;;;;;;;8.40;5.22;;;;;;;23.20;67.35;100944.84;2096542;28;20060;-74
2022/06/16 02:39:42;;;;;;;11.95;5.63;;;;;;;23.22;67.11;100949.25;2094048;28;20068;-75
2022/06/16 02:41:16;;;;;;;8.60;5.43;;;;;;;23.25;66.90;100942.88;2102608;28;20249;-73
2022/06/16 02:42:49;;;;;;;8.38;5.70;;;;;;;23.29;66.77;100941.84;2095166;28;20041;-74
2022/06/16 02:44:18;;;;;;;9.32;5.85;;;;;;;23.31;66.59;100943.53;2100972;28;20072;-73
2022/06/16 02:45:48;;;;;;;15.30;5.72;;;;;;;23.32;66.37;100942.63;2100931;28;20044;-74
2022/06/16 02:47:19;;;;;;;9.02;5.35;;;;;;;23.25;66.36;100950.94;2094342;28;20055;-74
2022/06/16 02:48:47;;;;;;;9.35;5.25;;;;;;;23.20;66.54;100939.44;2091593;28;20074;-74
2022/06/16 02:50:13;;;;;;;13.15;5.75;;;;;;;23.18;66.61;100952.09;2099000;28;20538;-74
2022/06/16 02:51:43;;;;;;;10.48;6.32;;;;;;;23.14;66.64;100951.31;2102395;28;20048;-74
2022/06/16 02:53:17;;;;;;;10.43;5.78;;;;;;;23.16;66.67;100948.59;2101965;28;20055;-74
2022/06/16 02:55:00;;;;;;;13.18;6.13;;;;;;;23.15;66.55;100945.00;2086913;28;20044;-74
2022/06/16 02:56:32;;;;;;;10.55;5.57;;;;;;;23.15;66.45;100944.13;2096543;28;20040;-74
2022/06/16 02:57:57;;;;;;;8.25;5.70;;;;;;;23.12;66.43;100953.16;2086334;28;20053;-74
2022/06/16 02:59:53;;;;;;;13.85;5.70;;;;;;;23.12;66.32;100949.59;2101488;28;20067;-74
2022/06/16 03:01:21;;;;;;;9.77;6.03;;;;;;;23.08;66.39;100956.91;2096320;28;20143;-74
2022/06/16 03:02:44;;;;;;;9.85;5.10;;;;;;;23.06;66.37;100948.00;2097326;28;20044;-75
2022/06/16 03:04:08;;;;;;;8.13;4.95;;;;;;;23.06;66.47;100958.75;2085363;28;20143;-74
2022/06/16 03:05:30;;;;;;;10.07;5.47;;;;;;;23.07;66.52;100955.13;2097732;28;20054;-74
2022/06/16 03:06:55;;;;;;;7.95;5.30;;;;;;;23.07;66.34;100949.75;2087629;28;20431;-74
2022/06/16 03:08:17;;;;;;;8.80;4.40;;;;;;;23.09;66.39;100955.09;2091544;28;20098;-74
2022/06/16 03:09:42;;;;;;;10.07;5.32;;;;;;;23.11;66.41;100956.78;2089263;28;20044;-75
2022/06/16 03:11:06;;;;;;;9.52;5.60;;;;;;;23.16;66.26;100952.16;2091363;28;20067;-74
2022/06/16 03:12:29;;;;;;;9.40;5.40;;;;;;;23.20;66.12;100961.00;2091468;28;20139;-74
2022/06/16 03:13:51;;;;;;;12.48;5.50;;;;;;;23.22;66.01;100956.47;2095912;28;20504;-74
2022/06/16 03:15:29;;;;;;;10.75;5.57;;;;;;;23.22;66.01;100956.47;2096302;28;20068;-74
2022/06/16 03:16:51;;;;;;;10.65;6.35;;;;;;;23.24;65.96;100951.88;2091473;28;20045;-75
2022/06/16 03:18:17;;;;;;;11.13;5.82;;;;;;;23.25;65.85;100951.84;2091593;28;20095;-74
2022/06/16 03:19:41;;;;;;;11.30;5.80;;;;;;;23.26;65.96;100934.75;2092753;28;20072;-74
2022/06/16 03:21:02;;;;;;;11.93;5.47;;;;;;;23.29;65.94;100949.94;2086484;28;20056;-74
2022/06/16 03:22:25;;;;;;;7.55;4.82;;;;;;;23.34;65.84;100942.56;2085661;28;20147;-74
2022/06/16 03:23:48;;;;;;;12.45;5.45;;;;;;;23.40;65.84;100953.13;2100754;28;20056;-74
2022/06/16 03:25:13;;;;;;;9.98;6.30;;;;;;;23.45;65.54;100949.34;2102938;28;20090;-73
2022/06/16 03:26:36;;;;;;;12.70;5.10;;;;;;;23.38;65.55;100950.47;2103580;28;20059;-74
2022/06/16 03:27:59;;;;;;;10.60;5.15;;;;;;;23.27;65.89;100952.66;2093827;28;20040;-74
2022/06/16 03:29:25;;;;;;;11.48;5.63;;;;;;;23.26;66.04;100953.59;2088384;28;20200;-74
2022/06/16 03:30:47;;;;;;;8.55;5.10;;;;;;;23.32;66.11;100956.09;2085867;28;20139;-74
2022/06/16 03:32:13;;;;;;;13.13;5.70;;;;;;;23.40;65.80;100953.13;2088957;28;20467;-74
2022/06/16 03:33:37;;;;;;;9.98;4.88;;;;;;;23.53;65.68;100964.41;2092262;28;20491;-74
2022/06/16 03:34:59;;;;;;;10.68;5.38;;;;;;;23.62;65.52;100964.97;2095581;28;20051;-74
2022/06/16 03:36:25;;;;;;;11.30;5.38;;;;;;;23.72;65.26;100963.72;2095337;28;20135;-74
2022/06/16 03:37:47;;;;;;;11.60;5.53;;;;;;;23.81;64.92;100957.13;2100673;28;20113;-74
2022/06/16 03:39:10;;;;;;;10.27;5.80;;;;;;;23.93;64.83;100955.78;2085938;28;20056;-74
2022/06/16 03:40:42;;;;;;;11.60;5.43;;;;;;;24.02;64.50;100961.75;2094157;28;20114;-74
2022/06/16 03:42:06;;;;;;;8.82;5.32;;;;;;;24.08;64.41;100966.03;2097286;28;20105;-75
2022/06/16 03:43:28;;;;;;;12.50;4.82;;;;;;;24.11;64.19;100960.50;2086666;28;20052;-74
2022/06/16 03:44:54;;;;;;;8.13;4.70;;;;;;;24.18;64.05;100962.91;2090075;28;20048;-74
2022/06/16 03:46:17;;;;;;;8.45;4.78;;;;;;;24.28;63.98;100960.81;2091182;28;20056;-74
2022/06/16 03:47:49;;;;;;;9.50;5.13;;;;;;;24.35;63.60;100970.41;2091031;28;20140;-74
2022/06/16 03:49:13;;;;;;;8.43;4.68;;;;;;;24.40;63.59;100965.72;2091280;28;20143;-75
2022/06/16 03:50:42;;;;;;;11.23;5.45;;;;;;;24.50;63.61;100960.84;2094020;28;20040;-74
2022/06/16 03:52:04;;;;;;;12.23;5.00;;;;;;;24.61;63.29;100967.56;2086530;28;20061;-74
2022/06/16 03:53:30;;;;;;;8.75;4.60;;;;;;;24.72;63.00;100974.41;2095305;28;20041;-74
2022/06/16 03:54:55;;;;;;;6.95;4.07;;;;;;;24.80;62.69;100973.16;2095102;28;20067;-74
2022/06/16 03:56:18;;;;;;;10.80;4.95;;;;;;;24.89;62.32;100974.59;2098575;28;20055;-74
2022/06/16 03:57:43;;;;;;;9.30;4.57;;;;;;;24.94;62.02;100980.75;2095182;28;20048;-75
2022/06/16 03:59:10;;;;;;;14.55;4.82;;;;;;;24.97;62.05;100984.19;2091407;28;20496;-74
2022/06/16 04:00:33;;;;;;;11.43;5.13;;;;;;;25.06;61.70;100982.94;2088736;28;20055;-74
2022/06/16 04:02:01;;;;;;;9.45;4.80;;;;;;;25.17;61.60;100980.69;2090120;28;20064;-74
2022/06/16 04:05:11;;;;;;;8.85;4.70;;;;;;;25.44;60.72;100991.28;2096405;28;20040;-74
2022/06/16 04:06:39;;;;;;;10.85;5.30;;;;;;;25.53;60.32;100990.91;2093770;28;20142;-74
2022/06/16 04:08:01;;;;;;;6.82;4.35;;;;;;;25.68;60.10;100995.66;2092028;28;20139;-74
2022/06/16 04:09:24;;;;;;;9.23;4.97;;;;;;;25.85;59.71;100994.97;2091018;28;20131;-74
2022/06/16 04:10:47;;;;;;;11.77;5.15;;;;;;;25.97;59.25;100987.19;2093388;28;20064;-74
2022/06/16 04:12:10;;;;;;;8.80;4.22;;;;;;;26.11;59.12;101003.69;2103014;28;20048;-74
2022/06/16 04:13:33;;;;;;;6.95;4.07;;;;;;;26.25;58.60;100997.69;2100480;28;20048;-74
2022/06/16 04:14:57;;;;;;;8.00;3.92;;;;;;;26.43;58.37;100993.25;2092461;28;20192;-74
2022/06/16 04:16:19;;;;;;;6.93;4.28;;;;;;;26.62;58.18;101004.09;2092054;28;20047;-74
2022/06/16 04:17:41;;;;;;;9.00;5.03;;;;;;;26.78;57.75;101000.56;2090671;28;20105;-74
2022/06/16 04:19:17;;;;;;;8.32;3.75;;;;;;;26.95;57.59;101002.53;2093673;28;20053;-74
2022/06/16 04:20:41;;;;;;;7.97;4.22;;;;;;;27.09;56.98;101001.84;2093921;28;20578;-74
2022/06/16 04:22:18;;;;;;;8.10;4.68;;;;;;;27.22;56.73;100997.59;2096301;28;20045;-74
2022/06/16 04:23:54;;;;;;;8.07;4.78;;;;;;;27.35;56.34;100998.72;2094511;28;20052;-74
2022/06/16 04:25:19;;;;;;;10.20;4.10;;;;;;;27.50;56.00;100997.09;2101751;28;20218;-74
2022/06/16 04:26:42;;;;;;;6.47;3.95;;;;;;;27.63;55.50;100995.53;2102353;28;20520;-74
2022/06/16 04:28:07;;;;;;;7.90;4.20;;;;;;;27.79;55.36;100998.31;2096466;28;20500;-74
2022/06/16 04:29:33;;;;;;;9.45;4.35;;;;;;;28.00;54.85;100999.91;2086938;28;20045;-75
2022/06/16 04:30:55;;;;;;;8.13;3.88;;;;;;;28.20;54.23;101002.47;2102419;28;20152;-74
2022/06/16 04:32:24;;;;;;;8.57;4.45;;;;;;;28.41;53.77;101003.16;2094895;28;20135;-75
2022/06/16 04:33:48;;;;;;;10.75;4.00;;;;;;;28.59;53.00;101010.31;2094420;28;20059;-75
2022/06/16 04:35:10;;;;;;;7.65;3.80;;;;;;;28.79;52.69;101012.81;2093037;28;20933;-74
2022/06/16 04:36:56;;;;;;;9.60;3.90;;;;;;;28.99;51.79;101002.66;2097168;28;20817;-75
2022/06/16 04:38:19;;;;;;;8.95;3.92;;;;;;;29.12;51.19;101014.59;2099323;28;20039;-75
2022/06/16 04:39:42;;;;;;;10.98;4.03;;;;;;;29.17;50.96;101018.81;2089772;28;20421;-75
2022/06/16 04:41:05;;;;;;;10.85;4.05;;;;;;;29.32;50.63;101012.47;2100233;28;20052;-74
2022/06/16 04:42:26;;;;;;;8.45;3.70;;;;;;;29.52;50.27;101013.19;2093288;28;20100;-75
2022/06/16 04:43:50;;;;;;;6.13;3.35;;;;;;;29.72;49.74;101015.59;2083427;28;20052;-75
2022/06/16 04:45:12;;;;;;;9.35;4.15;;;;;;;29.90;49.25;101008.16;2088509;28;20572;-75
2022/06/16 04:46:36;;;;;;;7.43;3.70;;;;;;;30.03;49.06;101017.38;2090799;28;20771;-74
2022/06/16 04:47:58;;;;;;;9.13;3.80;;;;;;;30.08;48.71;101017.94;2100186;28;20042;-75
2022/06/16 04:49:26;;;;;;;6.82;3.40;;;;;;;30.10;48.38;101016.91;2094993;28;20419;-74
2022/06/16 04:50:49;;;;;;;11.73;3.30;;;;;;;30.23;48.09;101010.69;2096703;28;20557;-75
2022/06/16 04:52:17;;;;;;;7.55;3.55;;;;;;;30.45;48.06;101014.72;2092141;28;20181;-75
2022/06/16 04:53:42;;;;;;;7.90;3.30;;;;;;;30.66;47.44;101019.78;2093201;28;20037;-75
2022/06/16 04:55:10;;;;;;;11.50;5.00;;;;;;;30.86;47.24;101017.53;2094390;28;20132;-75
2022/06/16 04:56:33;;;;;;;9.48;3.75;;;;;;;30.87;46.83;101013.84;2098174;28;20052;-75
2022/06/16 04:58:18;;;;;;;7.18;3.97;;;;;;;30.91;46.54;101022.72;2103229;28;20105;-75
2022/06/16 05:00:09;;;;;;;6.65;3.33;;;;;;;31.19;46.44;101019.94;2103029;28;20064;-74
2022/06/16 05:01:54;;;;;;;5.95;3.40;;;;;;;31.47;45.89;101021.72;2073314;28;20402;-75
2022/06/16 05:03:42;;;;;;;14.68;4.20;;;;;;;31.77;45.39;101032.41;2085371;28;20079;-74
2022/06/16 05:05:18;;;;;;;8.40;3.60;;;;;;;31.95;44.58;101027.56;2100204;28;20044;-74
2022/06/16 05:06:56;;;;;;;7.03;3.33;;;;;;;32.04;44.04;101025.06;2095607;28;20040;-75
2022/06/16 05:08:33;;;;;;;7.00;2.90;;;;;;;32.15;44.15;101031.69;2094829;28;20051;-75
2022/06/16 05:10:24;;;;;;;5.80;3.35;;;;;;;32.36;43.79;101021.97;2104923;28;20055;-75
2022/06/16 05:12:05;;;;;;;9.40;3.20;;;;;;;32.57;43.53;101022.25;2096485;28;20048;-75
2022/06/16 05:13:54;;;;;;;11.50;4.05;;;;;;;32.61;43.32;101032.00;2103348;28;20055;-75
2022/06/16 05:15:36;;;;;;;6.47;3.30;;;;;;;32.80;42.96;101019.66;2111221;28;20158;-75
2022/06/16 05:17:21;;;;;;;7.65;3.35;;;;;;;33.10;42.45;101024.72;2085960;28;20099;-75
2022/06/16 05:18:58;;;;;;;7.70;3.15;;;;;;;33.18;42.05;101030.50;2097812;28;20055;-75
2022/06/16 05:20:42;;;;;;;7.90;3.53;;;;;;;33.29;41.99;101027.00;2104806;28;20075;-75
2022/06/16 05:22:28;;;;;;;7.10;3.28;;;;;;;33.37;41.79;101032.78;2103098;28;20812;-75
2022/06/16 05:24:11;;;;;;;7.75;3.30;;;;;;;33.17;42.09;101023.28;2103482;28;20060;-75
2022/06/16 05:25:53;;;;;;;10.88;3.33;;;;;;;33.11;42.30;101025.59;2108455;28;20048;-75
2022/06/16 05:27:39;;;;;;;8.10;3.20;;;;;;;33.17;42.38;101023.28;2103396;28;20135;-75
2022/06/16 05:29:40;;;;;;;9.07;3.10;;;;;;;33.36;42.29;101025.53;2098235;28;20075;-75
2022/06/16 05:31:18;;;;;;;7.78;3.15;;;;;;;33.48;42.08;101034.69;2095633;28;20056;-75
2022/06/16 05:32:55;;;;;;;7.45;3.38;;;;;;;33.61;42.00;101035.50;2093254;28;20378;-75
2022/06/16 05:34:42;;;;;;;7.88;3.10;;;;;;;33.70;41.96;101039.41;2103558;28;20138;-75
2022/06/16 05:36:13;;;;;;;11.68;3.75;;;;;;;33.87;41.90;101031.66;2094391;28;20048;-75
2022/06/16 05:37:45;;;;;;;7.07;2.90;;;;;;;33.98;41.45;101031.72;2094240;28;20048;-75
2022/06/16 05:39:27;;;;;;;9.68;2.70;;;;;;;34.04;41.50;101029.50;2103632;28;20608;-75
2022/06/16 05:41:18;;;;;;;7.85;2.83;;;;;;;33.99;41.29;101038.97;2101579;28;20055;-75
2022/06/16 05:43:05;;;;;;;7.88;3.40;;;;;;;33.98;41.31;101041.81;2099108;28;20037;-75
2022/06/16 05:44:45;;;;;;;4.50;2.83;;;;;;;34.13;40.95;101039.75;2094823;28;20044;-75
2022/06/16 05:46:26;;;;;;;7.65;3.35;;;;;;;34.33;40.68;101036.34;2103645;28;20051;-75
2022/06/16 05:48:00;;;;;;;7.95;3.13;;;;;;;34.42;40.22;101038.31;2095268;28;20043;-75
2022/06/16 05:49:28;;;;;;;6.85;2.78;;;;;;;34.55;40.05;101039.09;2100476;28;20059;-75
2022/06/16 05:50:56;;;;;;;7.10;2.70;;;;;;;34.63;39.71;101042.09;2102013;28;20103;-75
2022/06/16 05:52:22;;;;;;;10.65;3.25;;;;;;;34.77;39.42;101041.03;2095533;28;20048;-76
2022/06/16 05:53:58;;;;;;;6.50;3.10;;;;;;;34.79;39.21;101039.00;2091926;28;20477;-76
2022/06/16 05:55:26;;;;;;;7.53;3.05;;;;;;;34.92;38.85;101044.41;2098756;28;20105;-75
2022/06/16 05:56:49;;;;;;;8.98;3.28;;;;;;;35.05;38.64;101042.38;2091754;28;20045;-75
2022/06/16 05:58:12;;;;;;;6.28;2.70;;;;;;;35.11;38.26;101039.13;2088581;28;20055;-75
2022/06/16 05:59:46;;;;;;;8.02;3.17;;;;;;;35.10;38.32;101034.63;2091169;28;20048;-75
2022/06/16 06:01:10;;;;;;;7.03;3.50;;;;;;;35.13;38.24;101037.97;2097789;28;20055;-75
2022/06/16 06:02:32;;;;;;;8.23;3.50;;;;;;;35.15;38.35;101036.00;2088411;28;20040;-75
2022/06/16 06:03:58;;;;;;;5.25;2.90;;;;;;;35.19;38.13;101036.59;2088989;28;20064;-75
2022/06/16 06:05:22;;;;;;;6.32;2.58;;;;;;;35.09;37.77;101041.13;2079669;28;20045;-75
2022/06/16 06:06:46;;;;;;;7.40;2.70;;;;;;;35.01;37.81;101041.75;2088694;28;20064;-75
2022/06/16 06:17:11;;;;;;;8.85;2.97;;;;;;;35.16;37.86;101047.84;2079888;28;20102;-76
2022/06/16 06:18:34;;;;;;;8.45;3.05;;;;;;;35.31;37.92;101041.13;2082593;28;20107;-76
2022/06/16 06:19:57;;;;;;;7.90;3.80;;;;;;;35.45;37.66;101046.31;2089024;28;20072;-75
2022/06/16 06:21:57;;;;;;;8.40;3.03;;;;;;;35.55;37.47;101046.41;2094977;28;20061;-75
2022/06/16 06:23:02;;;;;;;8.55;2.85;;;;;;;35.42;37.71;101043.84;2108391;28;20048;-74
2022/06/16 06:24:24;;;;;;;7.32;2.80;;;;;;;35.25;37.82;101038.88;2091574;28;20044;-74
2022/06/16 06:25:47;;;;;;;7.00;2.92;;;;;;;35.03;38.46;101038.88;2089970;28;20092;-73
2022/06/16 06:27:15;;;;;;;9.48;3.08;;;;;;;35.03;38.20;101045.25;2095110;28;20475;-74
2022/06/16 06:28:38;;;;;;;5.35;2.65;;;;;;;35.09;38.36;101036.50;2091318;28;20048;-74
2022/06/16 06:30:01;;;;;;;5.93;3.13;;;;;;;35.08;38.34;101039.38;2105633;28;20044;-74
2022/06/16 06:31:24;;;;;;;8.27;3.00;;;;;;;34.96;38.70;101046.75;2094894;28;20152;-74
2022/06/16 06:32:50;;;;;;;7.47;2.92;;;;;;;35.08;38.56;101040.25;2088718;28;20450;-74
2022/06/16 06:34:12;;;;;;;6.07;2.90;;;;;;;35.28;38.14;101040.50;2090428;28;20045;-74
2022/06/16 06:35:35;;;;;;;8.48;2.80;;;;;;;35.32;38.08;101041.97;2091584;28;20144;-74
2022/06/16 06:36:58;;;;;;;7.35;2.75;;;;;;;35.42;38.25;101037.47;2099177;28;20539;-74
2022/06/16 06:38:20;;;;;;;5.75;2.63;;;;;;;35.36;38.02;101036.13;2094370;28;20052;-74
2022/06/16 06:39:44;;;;;;;5.63;2.95;;;;;;;35.26;38.43;101037.88;2099332;28;20075;-74
2022/06/16 06:41:07;;;;;;;4.82;2.47;;;;;;;35.26;38.47;101042.47;2100860;28;20040;-74
2022/06/16 06:42:31;;;;;;;6.75;3.22;;;;;;;35.12;38.34;101033.47;2099714;28;20075;-74
2022/06/16 06:43:53;;;;;;;8.73;2.97;;;;;;;34.93;38.68;101043.38;2096368;28;20064;-74
2022/06/16 06:45:16;;;;;;;6.22;2.58;;;;;;;35.00;38.81;101047.34;2093284;28;20605;-75
2022/06/16 06:46:38;;;;;;;6.93;2.75;;;;;;;35.11;38.61;101036.38;2101641;28;20081;-75
2022/06/16 06:48:03;;;;;;;7.72;3.00;;;;;;;35.12;38.89;101041.72;2097998;28;20051;-75
2022/06/16 06:49:25;;;;;;;6.32;3.05;;;;;;;35.25;38.68;101041.59;2096066;28;20330;-75
2022/06/16 06:50:48;;;;;;;6.80;3.05;;;;;;;35.28;38.51;101035.00;2103757;28;20139;-75
2022/06/16 06:52:10;;;;;;;5.57;2.75;;;;;;;35.19;38.59;101042.97;2103061;28;20032;-75
2022/06/16 06:53:33;;;;;;;4.50;3.00;;;;;;;35.13;38.79;101034.34;2103052;28;20055;-74
2022/06/16 06:54:55;;;;;;;6.00;2.80;;;;;;;35.22;38.54;101041.00;2102437;28;20090;-75
2022/06/16 06:56:19;;;;;;;5.65;3.13;;;;;;;35.24;38.56;101042.63;2103204;28;20384;-74
2022/06/16 06:57:43;;;;;;;5.07;2.53;;;;;;;35.28;38.72;101038.63;2102229;28;20036;-74
2022/06/16 06:59:07;;;;;;;8.27;2.95;;;;;;;35.40;38.54;101040.34;2099379;28;20043;-74
2022/06/16 07:00:32;;;;;;;13.38;3.10;;;;;;;35.34;38.50;101040.84;2102116;28;20049;-74
2022/06/16 07:01:54;;;;;;;7.38;2.83;;;;;;;35.08;38.62;101028.38;2100983;28;20063;-74